Bush, Kentucky
Current Conditions -  °F | °C
As of 11:53 PM on Tuesday 21 Oct 2014 (Local Time) from KLOZ Reporting Station
Overcast Overcast  
Wind Chill: 51°   Ceiling: 5000
Heat Index: 51°   Visibility: 10mi
Dew Point: 40°   Wind: 3mph
Humidity: 66%   Direction: 350°N
Pressure: 30.13"   Gusts: NA
Location:  37.09°N, 83.87°W
Report Text: KLOZ 220353Z AUTO 35003KT 10SM OVC050 11/04 A3013 RMK AO2 SLP200 T01060044
Loading
Personal Weather Stations






























Interactive Weather Map
Tropical Storm Tracking
New forecast layout! Learn more

10-Day Weather Forecast

Advertisements
Track Severe Weather on mobile